AAL9920 KPQI-TJSJ
Flight info
| Callsign | AAL9920 |
|---|---|
| Flight time | N/A |
| Altitude | 35000 |
| Route | VIGMA/M079F360 DCT MEANO DCT EMAKO/M079F370 L456 HANCY/N0459F370 L456 THANK SAALR2 |
| Aircraft | A319/M-SDE3FGHIRWY/LB1 |
Departure
| Time | N/A |
|---|---|
| Airport | Presque Isle International Airport (KPQI) |
Arrival
| Time | 2026-05-08 05:07 |
|---|---|
| Airport | Luis Munoz Marin International Airport (TJSJ) |
| Time | Latitude | Longitude | Altitude | Speed | Heading |
|---|---|---|---|---|---|
| 2026-05-08 04:28 | 22.09608 | -66.18280 | 37116 ft | 493 kts | 168° |
| 2026-05-08 04:29 | 22.02862 | -66.16901 | 37117 ft | 493 kts | 167° |
| 2026-05-08 04:29 | 21.96165 | -66.15540 | 37113 ft | 493 kts | 168° |
| 2026-05-08 04:30 | 21.89412 | -66.14170 | 37111 ft | 494 kts | 167° |
| 2026-05-08 04:30 | 21.82663 | -66.12793 | 37112 ft | 494 kts | 167° |
| 2026-05-08 04:31 | 21.75909 | -66.11427 | 37114 ft | 494 kts | 167° |
| 2026-05-08 04:31 | 21.69156 | -66.10061 | 37111 ft | 494 kts | 167° |
| 2026-05-08 04:32 | 21.62395 | -66.08692 | 37112 ft | 494 kts | 167° |
| 2026-05-08 04:32 | 21.55636 | -66.07312 | 37108 ft | 494 kts | 167° |
| 2026-05-08 04:33 | 21.48881 | -66.05932 | 37108 ft | 495 kts | 167° |
| 2026-05-08 04:33 | 21.42019 | -66.05289 | 37105 ft | 497 kts | 178° |
| 2026-05-08 04:34 | 21.35150 | -66.05175 | 37104 ft | 497 kts | 178° |
| 2026-05-08 04:34 | 21.28236 | -66.05052 | 37098 ft | 497 kts | 178° |
| 2026-05-08 04:35 | 21.21319 | -66.04940 | 37099 ft | 497 kts | 178° |
| 2026-05-08 04:35 | 21.14395 | -66.04820 | 37094 ft | 498 kts | 178° |
| 2026-05-08 04:36 | 21.10939 | -66.05057 | 37092 ft | 498 kts | 191° |
| 2026-05-08 04:36 | 21.07585 | -66.05979 | 37094 ft | 498 kts | 196° |
| 2026-05-08 04:36 | 21.00922 | -66.08007 | 37094 ft | 498 kts | 197° |
| 2026-05-08 04:37 | 20.94253 | -66.10045 | 37094 ft | 499 kts | 197° |
| 2026-05-08 04:37 | 20.87579 | -66.12085 | 37094 ft | 499 kts | 197° |
| 2026-05-08 04:38 | 20.80899 | -66.14116 | 37095 ft | 499 kts | 196° |
| 2026-05-08 04:38 | 20.74213 | -66.16148 | 37092 ft | 499 kts | 196° |
| 2026-05-08 04:39 | 20.67530 | -66.18181 | 37094 ft | 500 kts | 196° |
| 2026-05-08 04:39 | 20.60837 | -66.20215 | 36807 ft | 500 kts | 196° |
| 2026-05-08 04:40 | 20.57496 | -66.21229 | 36559 ft | 500 kts | 196° |
| 2026-05-08 04:40 | 20.55277 | -66.21900 | 36397 ft | 500 kts | 196° |
| 2026-05-08 04:40 | 20.51933 | -66.22908 | 36159 ft | 500 kts | 196° |
| 2026-05-08 04:40 | 20.48584 | -66.23919 | 35907 ft | 500 kts | 196° |
| 2026-05-08 04:41 | 20.45242 | -66.24929 | 35460 ft | 501 kts | 196° |
| 2026-05-08 04:41 | 20.40746 | -66.26289 | 34220 ft | 512 kts | 196° |
| 2026-05-08 04:41 | 20.37303 | -66.27330 | 33487 ft | 512 kts | 196° |
| 2026-05-08 04:41 | 20.33898 | -66.28358 | 32975 ft | 507 kts | 195° |
| 2026-05-08 04:42 | 20.31606 | -66.29050 | 32568 ft | 505 kts | 195° |
| 2026-05-08 04:42 | 20.28242 | -66.30071 | 31999 ft | 501 kts | 195° |
| 2026-05-08 04:42 | 20.24907 | -66.31085 | 31411 ft | 497 kts | 194° |
| 2026-05-08 04:42 | 20.21638 | -66.32076 | 30914 ft | 492 kts | 194° |
| 2026-05-08 04:43 | 20.18363 | -66.33064 | 30316 ft | 489 kts | 194° |
| 2026-05-08 04:43 | 20.15115 | -66.34040 | 29916 ft | 480 kts | 193° |
| 2026-05-08 04:43 | 20.11921 | -66.34998 | 29303 ft | 476 kts | 194° |
| 2026-05-08 04:43 | 20.08748 | -66.35950 | 28731 ft | 471 kts | 194° |
| 2026-05-08 04:44 | 20.05607 | -66.36894 | 28166 ft | 466 kts | 194° |
| 2026-05-08 04:44 | 20.02502 | -66.37829 | 27625 ft | 461 kts | 194° |
| 2026-05-08 04:44 | 19.99442 | -66.38752 | 27125 ft | 456 kts | 195° |
| 2026-05-08 04:44 | 19.96399 | -66.39669 | 26496 ft | 454 kts | 195° |
| 2026-05-08 04:45 | 19.93381 | -66.40574 | 26051 ft | 447 kts | 195° |
| 2026-05-08 04:45 | 19.90397 | -66.41470 | 25509 ft | 444 kts | 195° |
| 2026-05-08 04:45 | 19.87443 | -66.42354 | 25047 ft | 438 kts | 195° |
| 2026-05-08 04:45 | 19.84524 | -66.43228 | 24584 ft | 434 kts | 196° |
| 2026-05-08 04:46 | 19.81632 | -66.44100 | 24123 ft | 430 kts | 196° |
| 2026-05-08 04:46 | 19.78768 | -66.44964 | 23660 ft | 426 kts | 196° |
| 2026-05-08 04:46 | 19.75928 | -66.45821 | 23125 ft | 423 kts | 196° |
| 2026-05-08 04:46 | 19.73112 | -66.46666 | 22653 ft | 419 kts | 196° |
| 2026-05-08 04:47 | 19.70319 | -66.47500 | 22172 ft | 415 kts | 196° |
| 2026-05-08 04:47 | 19.67550 | -66.48327 | 21668 ft | 412 kts | 196° |
| 2026-05-08 04:47 | 19.64797 | -66.49151 | 21186 ft | 409 kts | 196° |
| 2026-05-08 04:47 | 19.62067 | -66.49948 | 20678 ft | 406 kts | 193° |
| 2026-05-08 04:48 | 19.59273 | -66.50306 | 20186 ft | 404 kts | 180° |
| 2026-05-08 04:48 | 19.56485 | -66.50026 | 19686 ft | 401 kts | 168° |
| 2026-05-08 04:48 | 19.53824 | -66.49177 | 19205 ft | 398 kts | 160° |
| 2026-05-08 04:48 | 19.51260 | -66.48229 | 18733 ft | 394 kts | 161° |
| 2026-05-08 04:49 | 19.48679 | -66.47277 | 18229 ft | 391 kts | 161° |
| 2026-05-08 04:49 | 19.46121 | -66.46337 | 17706 ft | 387 kts | 161° |
| 2026-05-08 04:49 | 19.43594 | -66.45414 | 17242 ft | 382 kts | 161° |
| 2026-05-08 04:49 | 19.41097 | -66.44508 | 16771 ft | 377 kts | 161° |
| 2026-05-08 04:50 | 19.38631 | -66.43609 | 16297 ft | 373 kts | 161° |
| 2026-05-08 04:50 | 19.36197 | -66.42720 | 15892 ft | 367 kts | 161° |
| 2026-05-08 04:50 | 19.33774 | -66.41833 | 15295 ft | 369 kts | 161° |
| 2026-05-08 04:50 | 19.31358 | -66.40950 | 14835 ft | 365 kts | 161° |
| 2026-05-08 04:51 | 19.28967 | -66.40077 | 14378 ft | 362 kts | 161° |
| 2026-05-08 04:51 | 19.26588 | -66.39208 | 13929 ft | 360 kts | 161° |
| 2026-05-08 04:51 | 19.24227 | -66.38347 | 13440 ft | 357 kts | 161° |
| 2026-05-08 04:51 | 19.21892 | -66.37495 | 12992 ft | 353 kts | 160° |
| 2026-05-08 04:52 | 19.19577 | -66.36651 | 12552 ft | 350 kts | 160° |
| 2026-05-08 04:52 | 19.17289 | -66.35818 | 12115 ft | 346 kts | 160° |
| 2026-05-08 04:52 | 19.15024 | -66.34996 | 11685 ft | 343 kts | 160° |
| 2026-05-08 04:52 | 19.12776 | -66.34179 | 11265 ft | 340 kts | 160° |
| 2026-05-08 04:53 | 19.10575 | -66.33298 | 10850 ft | 336 kts | 154° |
| 2026-05-08 04:53 | 19.08465 | -66.32280 | 10494 ft | 331 kts | 154° |
| 2026-05-08 04:53 | 19.06381 | -66.31280 | 10196 ft | 325 kts | 154° |
| 2026-05-08 04:53 | 19.04355 | -66.30314 | 10081 ft | 313 kts | 154° |
| 2026-05-08 04:54 | 19.02391 | -66.29382 | 9857 ft | 306 kts | 154° |
| 2026-05-08 04:54 | 19.00467 | -66.28466 | 9682 ft | 302 kts | 154° |
| 2026-05-08 04:54 | 18.98552 | -66.27553 | 9466 ft | 301 kts | 154° |
| 2026-05-08 04:54 | 18.96651 | -66.26646 | 9246 ft | 299 kts | 154° |
| 2026-05-08 04:55 | 18.94785 | -66.25755 | 9025 ft | 298 kts | 154° |
| 2026-05-08 04:55 | 18.92878 | -66.24844 | 8802 ft | 296 kts | 154° |
| 2026-05-08 04:55 | 18.91000 | -66.23949 | 8579 ft | 295 kts | 154° |
| 2026-05-08 04:55 | 18.89132 | -66.23058 | 8360 ft | 294 kts | 154° |
| 2026-05-08 04:56 | 18.87314 | -66.22192 | 8147 ft | 293 kts | 154° |
| 2026-05-08 04:56 | 18.85459 | -66.21311 | 7927 ft | 292 kts | 154° |
| 2026-05-08 04:56 | 18.83635 | -66.20445 | 7717 ft | 290 kts | 154° |
| 2026-05-08 04:56 | 18.81797 | -66.19571 | 7503 ft | 289 kts | 154° |
| 2026-05-08 04:57 | 18.79963 | -66.18700 | 7287 ft | 288 kts | 154° |
| 2026-05-08 04:57 | 18.78146 | -66.17836 | 7071 ft | 287 kts | 153° |
| 2026-05-08 04:57 | 18.76311 | -66.16988 | 6854 ft | 287 kts | 158° |
| 2026-05-08 04:57 | 18.74365 | -66.16539 | 6648 ft | 288 kts | 173° |
| 2026-05-08 04:58 | 18.72365 | -66.16627 | 6436 ft | 288 kts | 185° |
| 2026-05-08 04:58 | 18.70379 | -66.16864 | 6208 ft | 287 kts | 185° |
| 2026-05-08 04:58 | 18.68397 | -66.17097 | 5995 ft | 285 kts | 185° |
| 2026-05-08 04:58 | 18.66423 | -66.17326 | 5620 ft | 286 kts | 185° |
| 2026-05-08 04:59 | 18.64444 | -66.17554 | 5258 ft | 285 kts | 184° |
| 2026-05-08 04:59 | 18.62479 | -66.17780 | 4902 ft | 284 kts | 184° |
| 2026-05-08 04:59 | 18.60596 | -66.17996 | 4580 ft | 281 kts | 184° |
| 2026-05-08 04:59 | 18.58640 | -66.18222 | 4207 ft | 281 kts | 184° |
| 2026-05-08 05:00 | 18.56717 | -66.18444 | 3908 ft | 277 kts | 184° |
| 2026-05-08 05:00 | 18.54804 | -66.18663 | 3582 ft | 275 kts | 184° |
| 2026-05-08 05:00 | 18.52943 | -66.18880 | 3409 ft | 261 kts | 184° |
| 2026-05-08 05:00 | 18.51202 | -66.19082 | 3297 ft | 243 kts | 184° |
| 2026-05-08 05:01 | 18.49591 | -66.19267 | 3188 ft | 223 kts | 183° |
| 2026-05-08 05:01 | 18.48114 | -66.19438 | 3100 ft | 205 kts | 183° |
| 2026-05-08 05:01 | 18.46782 | -66.19422 | 3072 ft | 180 kts | 166° |
| 2026-05-08 05:01 | 18.45676 | -66.19045 | 3048 ft | 158 kts | 150° |
| 2026-05-08 05:02 | 18.44791 | -66.18428 | 2986 ft | 149 kts | 135° |
| 2026-05-08 05:02 | 18.44114 | -66.17635 | 2887 ft | 144 kts | 121° |
| 2026-05-08 05:02 | 18.43651 | -66.16715 | 2763 ft | 141 kts | 109° |
| 2026-05-08 05:02 | 18.43413 | -66.15719 | 2614 ft | 140 kts | 96° |
| 2026-05-08 05:03 | 18.43382 | -66.14700 | 2450 ft | 140 kts | 90° |
| 2026-05-08 05:03 | 18.43380 | -66.13676 | 2275 ft | 139 kts | 89° |
| 2026-05-08 05:03 | 18.43378 | -66.12692 | 2076 ft | 132 kts | 90° |
| 2026-05-08 05:03 | 18.43376 | -66.11737 | 1912 ft | 129 kts | 89° |
| 2026-05-08 05:04 | 18.43374 | -66.10795 | 1747 ft | 127 kts | 89° |
| 2026-05-08 05:04 | 18.43372 | -66.09865 | 1577 ft | 128 kts | 90° |
| 2026-05-08 05:04 | 18.43371 | -66.08927 | 1409 ft | 128 kts | 90° |
| 2026-05-08 05:04 | 18.43369 | -66.07987 | 1248 ft | 128 kts | 90° |
| 2026-05-08 05:05 | 18.43367 | -66.07040 | 1085 ft | 130 kts | 90° |
| 2026-05-08 05:05 | 18.43365 | -66.06091 | 918 ft | 129 kts | 90° |
| 2026-05-08 05:05 | 18.43363 | -66.05140 | 749 ft | 130 kts | 89° |
| 2026-05-08 05:05 | 18.43361 | -66.04206 | 583 ft | 129 kts | 90° |
| 2026-05-08 05:06 | 18.43360 | -66.03260 | 414 ft | 128 kts | 91° |
| 2026-05-08 05:06 | 18.43360 | -66.02325 | 250 ft | 127 kts | 91° |
| 2026-05-08 05:06 | 18.43357 | -66.01392 | 57 ft | 127 kts | 91° |
| 2026-05-08 05:06 | 18.43355 | -66.00542 | 17 ft | 98 kts | 90° |
| 2026-05-08 05:07 | 18.43353 | -65.99956 | 20 ft | 65 kts | 90° |
| 2026-05-08 05:07 | 18.43360 | -65.99634 | 22 ft | 31 kts | 78° |
| 2026-05-08 05:07 | 18.43441 | -65.99554 | 20 ft | 17 kts | 332° |
| 2026-05-08 05:07 | 18.43462 | -65.99680 | 19 ft | 19 kts | 270° |
| 2026-05-08 05:08 | 18.43460 | -65.99829 | 19 ft | 21 kts | 269° |
| 2026-05-08 05:08 | 18.43463 | -65.99990 | 19 ft | 23 kts | 270° |
| 2026-05-08 05:08 | 18.43464 | -66.00149 | 18 ft | 20 kts | 270° |
| 2026-05-08 05:08 | 18.43502 | -66.00230 | 18 ft | 13 kts | 336° |
| 2026-05-08 05:09 | 18.43597 | -66.00247 | 18 ft | 15 kts | 0° |
| 2026-05-08 05:09 | 18.43622 | -66.00245 | 18 ft | 0 kts | 4° |